Latest Weather Observations for Albury

IDV60801

Issued at 11:02 am EDT Thursday 5 March 2015 (issued every 30 minutes, with the page automatically refreshed every 10 minutes)

About weather observations | Map of weather stations | Latest weather observations for VIC | Other Formats
Station Details ID: 072160 Name: ALBURY AIRPORT AWS Lat: -36.07 Lon: 146.95 Height: 163.5 m
Data from the previous 72 hours. | See also: Recent months at Albury
Date/Time
EDT
Temp
°C
App
Temp
°C
Dew
Point
Rel
Hum
%
Delta-T
°C
Wind Press
QNH
hPa
Press
MSL
hPa
Rain
since 9 am
mm
Dir
 
Spd
km/h
Gust
km/h
Spd
kts
Gust
kts
05/11:00am 18.5 11.4 1.1 31 7.8 WSW 28 44 15 24 1014.0 1013.5 0.0
05/10:30am 17.7 10.4 2.5 36 7.0 WSW 30 41 16 22 1013.7 1013.2 0.0
05/10:00am 16.8 8.9 2.0 37 6.7 W 33 43 18 23 1013.4 1012.9 0.0
05/09:30am 15.7 7.8 2.2 40 6.1 W 33 48 18 26 1012.8 1012.3 0.0
05/09:00am 15.7 8.7 2.2 40 6.1 W 28 41 15 22 1012.5 1012.0 0.0
05/08:30am 15.6 8.9 3.4 44 5.6 WSW 28 39 15 21 1012.0 1011.5 0.0
05/08:00am 15.6 9.6 5.5 51 4.9 WSW 26 37 14 20 1012.1 1011.6 0.0
05/07:30am 15.2 9.5 8.4 64 3.5 SW 28 48 15 26 1011.9 1011.4 0.0
05/07:28am 15.3 9.5 7.8 61 3.8 WSW 28 48 15 26 1011.9 1011.4 0.0
05/07:00am 15.6 9.7 9.1 65 3.4 WSW 30 46 16 25 1011.1 1010.6 0.0
05/06:57am 15.7 10.1 8.9 64 3.5 WSW 28 46 15 25 1011.0 1010.4 0.0
05/06:30am 16.2 10.4 9.4 64 3.6 W 30 43 16 23 1010.2 1009.6 0.0
05/06:00am 16.2 11.5 9.2 63 3.7 W 24 33 13 18 1009.9 1009.3 0.0
05/05:30am 16.1 11.0 9.3 64 3.5 W 26 35 14 19 1009.6 1009.0 0.0
05/05:00am 16.3 11.6 9.3 63 3.7 WNW 24 33 13 18 1009.4 1008.8 0.0
05/04:30am 16.7 12.0 9.1 61 4.0 WNW 24 35 13 19 1009.4 1008.8 0.0
05/04:00am 17.1 11.9 9.0 59 4.2 WNW 26 35 14 19 1009.5 1008.9 0.0
05/03:30am 17.5 12.2 8.6 56 4.6 WNW 26 39 14 21 1009.5 1008.9 0.0
05/03:00am 18.0 13.4 8.3 53 5.0 WNW 22 35 12 19 1009.4 1008.8 0.0
05/02:30am 18.3 13.9 7.4 49 5.6 WNW 20 28 11 15 1009.5 1008.9 0.0
05/02:00am 18.9 14.3 6.7 45 6.2 WNW 20 28 11 15 1009.7 1009.1 0.0
05/01:30am 19.5 14.9 5.6 40 6.9 WNW 19 26 10 14 1009.9 1009.3 0.0
05/01:00am 19.4 14.9 4.3 37 7.3 W 17 24 9 13 1010.0 1009.4 0.0
05/12:30am 20.2 16.0 3.9 34 7.9 WNW 15 20 8 11 1010.1 1009.5 0.0
05/12:00am 20.3 15.6 3.1 32 8.2 WNW 17 22 9 12 1010.2 1009.6 0.0
 
Date/Time
EDT
Temp
°C
App
Temp
°C
Dew
Point
Rel
Hum
%
Delta-T
°C
Wind Press
QNH
hPa
Press
MSL
hPa
Rain
since 9 am
mm
Dir
 
Spd
km/h
Gust
km/h
Spd
kts
Gust
kts
04/11:30pm 20.4 16.0 2.7 31 8.3 WNW 15 20 8 11 1010.1 1009.5 0.0
04/11:00pm 19.0 16.1 2.4 33 7.7 W 7 9 4 5 1010.4 1009.8 0.0
04/10:30pm 19.7 16.3 2.1 31 8.2 NNW 9 13 5 7 1010.5 1009.9 0.0
04/10:00pm 20.9 18.0 1.7 28 8.9 NW 6 7 3 4 1010.7 1010.1 0.0
04/09:30pm 20.4 17.4 1.8 29 8.6 NW 7 11 4 6 1010.6 1010.0 0.0
04/09:00pm 22.1 18.7 1.7 26 9.6 NW 9 13 5 7 1010.5 1009.9 0.0
04/08:30pm 22.7 18.6 2.2 26 9.7 WNW 13 17 7 9 1010.2 1009.6 0.0
04/08:00pm 24.3 19.1 2.5 24 10.6 WNW 19 26 10 14 1009.9 1009.3 0.0
04/07:30pm 25.6 20.5 2.9 23 11.2 WNW 19 26 10 14 1009.8 1009.2 0.0
04/07:00pm 26.9 21.4 2.1 20 12.1 WNW 20 30 11 16 1009.8 1009.2 0.0
04/06:30pm 27.7 21.2 0.5 17 13.0 W 24 33 13 18 1009.8 1009.2 0.0
04/05:30pm 28.8 22.2 -0.4 15 13.8 WNW 24 33 13 18 1009.7 1009.1 0.0
04/05:00pm 29.2 22.2 -3.1 12 14.7 WNW 24 35 13 19 1009.8 1009.2 0.0
04/04:30pm 29.8 23.3 -2.6 12 14.9 WNW 22 32 12 17 1010.2 1009.6 0.0
04/04:00pm 29.7 22.3 -3.9 11 15.1 WNW 26 35 14 19 1010.4 1009.8 0.0
04/03:30pm 29.7 23.1 -0.6 14 14.4 W 24 35 13 19 1010.8 1010.2 0.0
04/03:00pm 29.3 22.9 -1.9 13 14.5 W 22 30 12 16 1011.2 1010.7 0.0
04/02:30pm 29.1 23.4 0.7 16 13.7 W 20 30 11 16 1011.6 1011.1 0.0
04/02:00pm 28.9 23.2 0.6 16 13.7 W 20 33 11 18 1011.9 1011.4 0.0
04/01:30pm 28.2 22.6 0.9 17 13.2 WNW 20 32 11 17 1012.3 1011.8 0.0
04/01:00pm 27.4 22.5 1.8 19 12.5 WNW 17 30 9 16 1012.7 1012.2 0.0
04/12:30pm 26.8 22.1 3.3 22 11.7 W 17 24 9 13 1013.1 1012.6 0.0
04/12:00pm 25.8 23.2 5.9 28 10.3 SW 9 15 5 8 1013.5 1013.0 0.0
04/11:30am 25.1 21.1 4.8 27 10.3 WNW 15 26 8 14 1014.1 1013.6 0.0
04/11:00am 24.6 21.9 5.4 29 9.8 W 9 17 5 9 1014.4 1013.9 0.0
04/10:30am 23.4 22.4 7.5 36 8.4 SE 2 7 1 4 1014.4 1013.9 0.0
04/10:00am 21.0 20.1 7.6 42 7.0 ENE 2 6 1 3 1014.6 1014.1 0.0
04/09:30am 19.1 17.9 8.1 49 5.7 SE 4 9 2 5 1014.9 1014.4 0.0
04/09:00am 17.6 15.9 7.4 51 5.2 SE 6 9 3 5 1014.7 1014.2 0.0
04/08:30am 15.7 13.9 8.0 60 3.9 SSE 7 7 4 4 1014.5 1014.0 0.0
04/08:00am 14.5 13.1 8.9 69 2.9 SW 6 7 3 4 1014.3 1013.8 0.0
04/07:30am 13.0 12.4 7.5 69 2.7 CALM 0 0 0 0 1013.9 1013.4 0.0
04/07:00am 12.9 12.2 7.1 68 2.8 CALM 0 0 0 0 1013.5 1013.0 0.0
04/06:30am 13.3 12.7 7.5 68 2.9 CALM 0 6 0 3 1013.4 1012.9 0.0
04/06:00am 13.6 13.1 7.8 68 2.9 CALM 0 0 0 0 1013.0 1012.5 0.0
04/05:30am 13.7 13.1 7.5 66 3.1 CALM 0 0 0 0 1012.6 1012.1 0.0
04/05:00am 14.8 14.3 7.8 63 3.5 CALM 0 0 0 0 1012.4 1011.9 0.0
04/04:30am 15.0 14.6 8.3 64 3.4 CALM 0 0 0 0 1012.4 1011.9 0.0
04/04:00am 15.0 14.7 8.5 65 3.3 CALM 0 0 0 0 1012.5 1012.0 0.0
04/03:30am 15.4 14.7 8.4 63 3.6 E 2 7 1 4 1012.7 1012.2 0.0
04/03:00am 14.8 13.9 7.8 63 3.5 E 2 7 1 4 1012.8 1012.3 0.0
04/02:30am 15.3 14.7 7.3 59 4.0 CALM 0 0 0 0 1012.8 1012.3 0.0
04/02:00am 15.7 15.2 8.0 60 3.9 CALM 0 0 0 0 1013.1 1012.6 0.0
04/01:30am 16.2 15.6 7.2 55 4.5 CALM 0 0 0 0 1013.2 1012.7 0.0
04/01:00am 17.6 16.8 6.5 48 5.5 CALM 0 0 0 0 1013.3 1012.8 0.0
04/12:30am 17.6 16.9 6.8 49 5.4 CALM 0 0 0 0 1013.3 1012.8 0.0
04/12:00am 19.6 18.8 6.3 42 6.7 CALM 0 0 0 0 1013.2 1012.7 0.0
 
Date/Time
EDT
Temp
°C
App
Temp
°C
Dew
Point
Rel
Hum
%
Delta-T
°C
Wind Press
QNH
hPa
Press
MSL
hPa
Rain
since 9 am
mm
Dir
 
Spd
km/h
Gust
km/h
Spd
kts
Gust
kts
03/11:30pm 21.0 19.2 5.4 36 7.8 N 4 7 2 4 1013.4 1012.9 0.0
03/11:00pm 22.5 19.7 5.0 32 8.8 W 9 9 5 5 1013.3 1012.8 0.0
03/10:30pm 22.6 19.3 4.6 31 8.9 W 11 15 6 8 1013.3 1012.8 0.0
03/10:00pm 23.3 20.0 4.3 29 9.4 W 11 13 6 7 1013.1 1012.6 0.0
03/09:30pm 24.1 20.7 4.0 27 10.0 W 11 15 6 8 1012.9 1012.4 0.0
03/09:00pm 24.6 21.4 3.3 25 10.5 W 9 13 5 7 1012.6 1012.1 0.0
03/08:30pm 25.4 21.0 2.8 23 11.1 WNW 15 19 8 10 1012.3 1011.8 0.0
03/08:00pm 26.6 21.8 2.5 21 11.8 WNW 17 22 9 12 1012.1 1011.6 0.0
03/07:30pm 27.9 22.8 2.9 20 12.5 WNW 19 28 10 15 1011.7 1011.2 0.0
03/07:00pm 29.7 24.5 3.6 19 13.3 WNW 20 28 11 15 1011.4 1010.9 0.0
03/06:30pm 30.5 26.1 5.0 20 13.4 WNW 17 22 9 12 1011.2 1010.7 0.0
03/06:00pm 30.7 26.8 7.2 23 12.8 W 17 30 9 16 1011.3 1010.8 0.0
03/05:30pm 31.4 28.0 7.8 23 13.1 WNW 15 30 8 16 1011.3 1010.8 0.0
03/05:00pm 30.4 27.8 9.3 27 11.9 NW 13 19 7 10 1011.4 1010.9 0.0
03/04:30pm 31.1 27.3 7.5 23 13.0 WNW 17 26 9 14 1011.5 1011.0 0.0
03/04:00pm 30.7 27.6 7.2 23 12.8 W 13 22 7 12 1011.6 1011.1 0.0
03/03:30pm 30.1 26.7 9.1 27 11.8 WSW 17 24 9 13 1011.9 1011.4 0.0
03/03:00pm 30.2 28.0 12.1 32 10.7 WSW 15 24 8 13 1012.4 1011.9 0.0
03/02:30pm 30.2 29.1 13.0 34 10.3 S 11 19 6 10 1012.7 1012.2 0.0
03/02:00pm 29.1 26.6 11.2 33 10.3 SSW 15 22 8 12 1013.0 1012.5 0.0
03/01:30pm 28.7 27.3 12.2 36 9.7 SSW 11 17 6 9 1013.4 1012.9 0.0
03/01:00pm 28.5 27.7 12.8 38 9.3 S 9 20 5 11 1013.9 1013.4 0.0
03/12:30pm 27.6 26.6 12.4 39 8.9 SE 9 17 5 9 1014.4 1013.9 0.0
03/12:00pm 26.7 26.2 12.7 42 8.2 NE 7 11 4 6 1014.7 1014.2 0.0
03/11:30am 26.6 26.3 13.3 43 7.9 SE 7 13 4 7 1015.0 1014.5 0.0
03/11:00am 25.4 24.7 11.9 43 7.8 S 7 11 4 6 1015.3 1014.8 0.0
03/10:30am 24.0 23.5 12.0 47 6.9 SE 6 9 3 5 1015.3 1014.8 0.0
03/10:00am 22.3 22.4 11.4 50 6.1 NNE 2 7 1 4 1014.9 1014.4 0.0
03/09:30am 20.7 20.0 11.3 55 5.2 ESE 6 9 3 5 1015.1 1014.6 0.0
03/09:00am 19.8 19.2 11.6 59 4.6 SSE 6 9 3 5 1015.0 1014.5 0.0
03/08:30am 18.9 18.1 11.2 61 4.2 S 6 7 3 4 1014.7 1014.2 0.0
03/08:00am 18.7 18.6 10.8 60 4.3 ESE 2 6 1 3 1014.2 1013.7 0.0
03/07:30am 18.7 17.9 11.0 61 4.2 E 6 7 3 4 1014.1 1013.6 0.0
03/07:00am 18.0 17.2 11.1 64 3.8 SSE 6 9 3 5 1013.9 1013.4 0.0
03/06:30am 18.3 17.5 11.1 63 3.9 SSE 6 9 3 5 1013.6 1013.1 0.0
03/06:00am 18.8 18.3 10.6 59 4.5 NE 4 6 2 3 1013.3 1012.8 0.0
03/05:30am 19.2 18.8 9.7 54 5.1 SSE 2 6 1 3 1013.0 1012.5 0.0
03/05:00am 19.0 19.0 9.8 55 4.9 CALM 0 0 0 0 1012.9 1012.4 0.0
03/04:30am 19.0 18.2 9.8 55 4.9 ESE 4 7 2 4 1012.9 1012.4 0.0
03/04:00am 19.0 17.5 10.6 58 4.6 SSE 9 11 5 6 1012.7 1012.2 0.0
03/03:30am 19.3 19.3 9.8 54 5.1 CALM 0 0 0 0 1012.8 1012.3 0.0
03/03:00am 19.4 19.5 10.1 55 5.0 CALM 0 0 0 0 1012.7 1012.2 0.0
03/02:30am 20.0 19.9 9.6 51 5.6 CALM 0 0 0 0 1012.7 1012.2 0.0
03/02:00am 20.1 19.7 9.9 52 5.5 NE 2 6 1 3 1012.9 1012.4 0.0
03/01:30am 20.6 19.8 9.8 50 5.8 SSE 4 9 2 5 1012.9 1012.4 0.0
03/01:00am 20.5 20.4 9.4 49 6.0 CALM 0 0 0 0 1012.9 1012.4 0.0
03/12:30am 20.6 20.5 9.5 49 6.0 CALM 0 7 0 4 1013.1 1012.6 0.0
03/12:00am 20.2 20.2 9.7 51 5.7 CALM 0 0 0 0 1013.4 1012.9 0.0
 
Date/Time
EDT
Temp
°C
App
Temp
°C
Dew
Point
Rel
Hum
%
Delta-T
°C
Wind Press
QNH
hPa
Press
MSL
hPa
Rain
since 9 am
mm
Dir
 
Spd
km/h
Gust
km/h
Spd
kts
Gust
kts
02/11:30pm 20.6 20.4 9.2 48 6.1 CALM 0 0 0 0 1013.7 1013.2 0.0
02/11:00pm 21.3 19.8 9.2 46 6.5 SSE 7 11 4 6 1013.8 1013.3 0.0
02/10:30pm 22.0 20.1 8.9 43 7.0 SSE 9 15 5 8 1013.7 1013.2 0.0
02/10:00pm 21.5 20.1 9.4 46 6.5 S 7 11 4 6 1013.8 1013.3 0.0
02/09:30pm 22.0 20.6 8.9 43 7.0 SSE 6 6 3 3 1013.3 1012.8 0.0
02/09:00pm 23.5 21.9 8.8 39 7.9 ESE 7 9 4 5 1013.2 1012.7 0.0
02/08:30pm 23.2 21.7 8.5 39 7.9 S 6 7 3 4 1013.2 1012.7 0.0
02/08:00pm 23.7 22.1 8.2 37 8.3 SSE 6 9 3 5 1012.8 1012.3 0.0
02/07:30pm 25.1 23.0 8.1 34 9.1 S 9 11 5 6 1012.7 1012.2 0.0
02/07:00pm 25.6 23.1 8.1 33 9.4 SSW 11 13 6 7 1012.7 1012.2 0.0
02/06:30pm 26.3 23.3 7.8 31 10.0 S 13 15 7 8 1012.2 1011.7 0.0
02/06:00pm 27.6 24.0 6.9 27 11.1 S 15 20 8 11 1012.5 1012.0 0.0
02/05:30pm 27.2 24.1 7.1 28 10.7 S 13 19 7 10 1012.2 1011.7 0.0
02/05:00pm 27.8 24.5 6.6 26 11.3 S 13 19 7 10 1012.8 1012.3 0.0
02/04:30pm 28.5 25.6 6.6 25 11.7 SSE 11 17 6 9 1013.2 1012.7 0.0
02/04:00pm 27.5 24.8 5.7 25 11.4 WSW 9 17 5 9 1013.4 1012.9 0.0
02/03:30pm 26.9 23.9 5.8 26 11.0 SSE 11 17 6 9 1013.5 1013.0 0.0
02/03:00pm 28.3 25.6 7.5 27 11.3 S 11 19 6 10 1013.9 1013.4 0.0
02/02:30pm 26.3 23.9 6.9 29 10.3 NNE 9 13 5 7 1014.5 1014.0 0.0
02/02:00pm 26.3 23.7 6.3 28 10.5 S 9 17 5 9 1015.1 1014.6 0.0
02/01:30pm 25.4 22.0 6.1 29 10.0 SSW 13 17 7 9 1015.4 1014.9 0.0
02/01:00pm 25.2 22.4 6.9 31 9.6 ESE 11 17 6 9 1016.1 1015.5 0.0
02/12:30pm 24.4 21.7 5.7 30 9.6 ESE 9 13 5 7 1016.7 1016.2 0.0
02/12:00pm 23.2 20.5 5.6 32 8.9 NE 9 15 5 8 1017.2 1016.7 0.0
02/11:30am 22.5 19.6 6.7 36 8.2 SSE 11 20 6 11 1017.7 1017.2 0.0

Other Formats:

Comma delimited format used in spreadsheet applications
http://www.bom.gov.au/fwo/IDV60801/IDV60801.95896.axf

JavaScript Object Notation format (JSON) in row-major order
http://www.bom.gov.au/fwo/IDV60801/IDV60801.95896.json